sensor_id;sensor_type;location;lat;lon;timestamp;pressure;altitude;pressure_sealevel;temperature;humidity
64066;BME280;50318;54.760;9.408;2022-08-03T00:01:22;101068.72;;;21.05;69.86
64066;BME280;50318;54.760;9.408;2022-08-03T00:03:47;101062.91;;;21.03;70.01
64066;BME280;50318;54.760;9.408;2022-08-03T00:06:13;101064.94;;;21.03;69.89
64066;BME280;50318;54.760;9.408;2022-08-03T00:08:38;101064.69;;;21.01;69.70
64066;BME280;50318;54.760;9.408;2022-08-03T00:11:04;101059.13;;;21.01;69.72
64066;BME280;50318;54.760;9.408;2022-08-03T00:13:31;101057.59;;;21.00;69.73
64066;BME280;50318;54.760;9.408;2022-08-03T00:15:57;101058.88;;;20.99;69.52
64066;BME280;50318;54.760;9.408;2022-08-03T00:18:23;101060.16;;;20.98;69.89
64066;BME280;50318;54.760;9.408;2022-08-03T00:20:48;101062.94;;;20.98;69.40
64066;BME280;50318;54.760;9.408;2022-08-03T00:23:14;101052.28;;;20.96;69.80
64066;BME280;50318;54.760;9.408;2022-08-03T00:25:40;101050.78;;;20.95;70.04
64066;BME280;50318;54.760;9.408;2022-08-03T00:28:05;101059.66;;;20.94;69.71
64066;BME280;50318;54.760;9.408;2022-08-03T00:30:31;101053.84;;;20.92;69.66
64066;BME280;50318;54.760;9.408;2022-08-03T00:32:57;101053.59;;;20.90;69.50
64066;BME280;50318;54.760;9.408;2022-08-03T00:35:23;101058.41;;;20.89;69.91
64066;BME280;50318;54.760;9.408;2022-08-03T00:37:48;101047.78;;;20.88;69.65
64066;BME280;50318;54.760;9.408;2022-08-03T00:40:14;101041.97;;;20.86;70.07
64066;BME280;50318;54.760;9.408;2022-08-03T00:42:47;101037.66;;;20.84;70.02
64066;BME280;50318;54.760;9.408;2022-08-03T00:45:15;101041.72;;;20.83;69.93
64066;BME280;50318;54.760;9.408;2022-08-03T00:47:40;101037.66;;;20.84;70.08
64066;BME280;50318;54.760;9.408;2022-08-03T00:50:06;101046.03;;;20.84;70.09
64066;BME280;50318;54.760;9.408;2022-08-03T00:52:33;101035.63;;;20.85;70.08
64066;BME280;50318;54.760;9.408;2022-08-03T00:54:59;101034.09;;;20.84;69.89
64066;BME280;50318;54.760;9.408;2022-08-03T00:57:25;101024.72;;;20.81;69.83
64066;BME280;50318;54.760;9.408;2022-08-03T00:59:50;101026.00;;;20.80;70.08
64066;BME280;50318;54.760;9.408;2022-08-03T01:02:25;101023.72;;;20.79;70.01
64066;BME280;50318;54.760;9.408;2022-08-03T01:04:51;101018.66;;;20.77;70.16
64066;BME280;50318;54.760;9.408;2022-08-03T01:17:55;101016.16;;;20.68;69.82
64066;BME280;50318;54.760;9.408;2022-08-03T01:20:15;101018.97;;;20.68;69.80
64066;BME280;50318;54.760;9.408;2022-08-03T01:25:39;101010.59;;;20.68;70.16
64066;BME280;50318;54.760;9.408;2022-08-03T01:30:55;101020.22;;;20.67;69.90
64066;BME280;50318;54.760;9.408;2022-08-03T01:33:24;101009.84;;;20.68;70.35
64066;BME280;50318;54.760;9.408;2022-08-03T01:35:57;101008.06;;;20.70;69.96
64066;BME280;50318;54.760;9.408;2022-08-03T01:38:24;101009.56;;;20.71;70.06
64066;BME280;50318;54.760;9.408;2022-08-03T01:40:51;101003.72;;;20.75;70.16
64066;BME280;50318;54.760;9.408;2022-08-03T01:43:19;101008.78;;;20.76;70.16
64066;BME280;50318;54.760;9.408;2022-08-03T01:45:45;101004.72;;;20.77;69.67
64066;BME280;50318;54.760;9.408;2022-08-03T01:48:11;101004.97;;;20.79;70.16
64066;BME280;50318;54.760;9.408;2022-08-03T01:50:40;101002.41;;;20.81;70.00
64066;BME280;50318;54.760;9.408;2022-08-03T01:53:06;101005.47;;;20.83;70.05
64066;BME280;50318;54.760;9.408;2022-08-03T01:55:33;101000.91;;;20.86;69.92
64066;BME280;50318;54.760;9.408;2022-08-03T01:58:02;100999.09;;;20.89;70.18
64066;BME280;50318;54.760;9.408;2022-08-03T02:00:28;101003.41;;;20.90;69.80
64066;BME280;50318;54.760;9.408;2022-08-03T02:02:54;100999.34;;;20.91;69.74
64066;BME280;50318;54.760;9.408;2022-08-03T02:05:20;101000.88;;;20.92;69.35
64066;BME280;50318;54.760;9.408;2022-08-03T02:07:46;100996.78;;;20.93;69.63
64066;BME280;50318;54.760;9.408;2022-08-03T02:10:12;100999.81;;;20.95;69.47
64066;BME280;50318;54.760;9.408;2022-08-03T02:12:39;100995.00;;;20.95;69.94
64066;BME280;50318;54.760;9.408;2022-08-03T02:15:07;100992.22;;;20.95;69.64
64066;BME280;50318;54.760;9.408;2022-08-03T02:17:33;100985.13;;;20.94;69.54
64066;BME280;50318;54.760;9.408;2022-08-03T02:19:59;100987.91;;;20.94;69.69
64066;BME280;50318;54.760;9.408;2022-08-03T02:22:25;100996.78;;;20.93;69.13
64066;BME280;50318;54.760;9.408;2022-08-03T02:24:51;100986.91;;;20.92;69.44
64066;BME280;50318;54.760;9.408;2022-08-03T02:27:19;100986.16;;;20.91;69.50
64066;BME280;50318;54.760;9.408;2022-08-03T02:29:45;100979.06;;;20.90;68.89
64066;BME280;50318;54.760;9.408;2022-08-03T02:32:13;100973.50;;;20.90;69.15
64066;BME280;50318;54.760;9.408;2022-08-03T02:34:41;100970.19;;;20.92;69.35
64066;BME280;50318;54.760;9.408;2022-08-03T02:37:09;100971.69;;;20.93;69.29
64066;BME280;50318;54.760;9.408;2022-08-03T02:39:35;100976.00;;;20.94;69.56
64066;BME280;50318;54.760;9.408;2022-08-03T02:42:01;100969.16;;;20.95;68.86
64066;BME280;50318;54.760;9.408;2022-08-03T02:44:27;100959.50;;;20.96;69.00
64066;BME280;50318;54.760;9.408;2022-08-03T02:46:54;100969.38;;;20.97;69.62
64066;BME280;50318;54.760;9.408;2022-08-03T02:49:20;100965.59;;;20.94;69.27
64066;BME280;50318;54.760;9.408;2022-08-03T02:51:46;100971.94;;;20.95;69.25
64066;BME280;50318;54.760;9.408;2022-08-03T02:54:14;100964.09;;;20.93;69.11
64066;BME280;50318;54.760;9.408;2022-08-03T02:56:42;100967.41;;;20.92;68.90
64066;BME280;50318;54.760;9.408;2022-08-03T02:59:08;100965.88;;;20.91;68.98
64066;BME280;50318;54.760;9.408;2022-08-03T03:01:34;100954.50;;;20.89;68.99
64066;BME280;50318;54.760;9.408;2022-08-03T03:04:00;100946.13;;;20.89;69.01
64066;BME280;50318;54.760;9.408;2022-08-03T03:06:26;100943.34;;;20.89;69.31
64066;BME280;50318;54.760;9.408;2022-08-03T03:08:52;100952.97;;;20.88;68.85
64066;BME280;50318;54.760;9.408;2022-08-03T03:11:18;100954.25;;;20.87;68.94
64066;BME280;50318;54.760;9.408;2022-08-03T03:13:45;100953.50;;;20.86;69.11
64066;BME280;50318;54.760;9.408;2022-08-03T03:16:12;100949.94;;;20.86;69.03
64066;BME280;50318;54.760;9.408;2022-08-03T03:18:38;100950.72;;;20.86;69.14
64066;BME280;50318;54.760;9.408;2022-08-03T03:21:04;100947.16;;;20.86;68.62
64066;BME280;50318;54.760;9.408;2022-08-03T03:23:32;100957.56;;;20.85;68.74
64066;BME280;50318;54.760;9.408;2022-08-03T03:26:00;100946.41;;;20.85;69.00
64066;BME280;50318;54.760;9.408;2022-08-03T03:28:26;100944.13;;;20.83;68.89
64066;BME280;50318;54.760;9.408;2022-08-03T03:30:55;100944.66;;;20.82;68.83
64066;BME280;50318;54.760;9.408;2022-08-03T03:33:21;100946.41;;;20.79;68.52
64066;BME280;50318;54.760;9.408;2022-08-03T03:35:46;100948.22;;;20.77;68.61
64066;BME280;50318;54.760;9.408;2022-08-03T03:38:12;100937.56;;;20.75;68.88
64066;BME280;50318;54.760;9.408;2022-08-03T03:40:38;100939.59;;;20.75;69.02
64066;BME280;50318;54.760;9.408;2022-08-03T03:43:09;100939.13;;;20.71;68.87
64066;BME280;50318;54.760;9.408;2022-08-03T03:45:36;100936.09;;;20.69;68.54
64066;BME280;50318;54.760;9.408;2022-08-03T03:48:05;100935.34;;;20.68;68.83
64066;BME280;50318;54.760;9.408;2022-08-03T03:50:31;100931.03;;;20.67;68.65
64066;BME280;50318;54.760;9.408;2022-08-03T03:52:57;100931.56;;;20.66;68.76
64066;BME280;50318;54.760;9.408;2022-08-03T03:55:23;100936.38;;;20.65;69.22
64066;BME280;50318;54.760;9.408;2022-08-03T03:57:48;100936.63;;;20.67;68.80
64066;BME280;50318;54.760;9.408;2022-08-03T04:00:15;100939.63;;;20.69;68.81
64066;BME280;50318;54.760;9.408;2022-08-03T04:02:40;100941.91;;;20.71;69.25
64066;BME280;50318;54.760;9.408;2022-08-03T04:05:06;100936.81;;;20.75;69.18
64066;BME280;50318;54.760;9.408;2022-08-03T04:07:58;100946.19;;;20.77;68.61
64066;BME280;50318;54.760;9.408;2022-08-03T04:10:45;100933.22;;;20.80;68.92
64066;BME280;50318;54.760;9.408;2022-08-03T04:13:23;100942.63;;;20.82;68.66
64066;BME280;50318;54.760;9.408;2022-08-03T04:15:51;100937.28;;;20.84;69.07
64066;BME280;50318;54.760;9.408;2022-08-03T04:18:17;100940.56;;;20.89;68.93
64066;BME280;50318;54.760;9.408;2022-08-03T04:20:44;100954.47;;;20.94;69.20
64066;BME280;50318;54.760;9.408;2022-08-03T04:23:11;100952.13;;;20.98;68.79
64066;BME280;50318;54.760;9.408;2022-08-03T04:25:38;100947.56;;;21.01;68.54
64066;BME280;50318;54.760;9.408;2022-08-03T04:28:30;100953.91;;;21.01;68.72
64066;BME280;50318;54.760;9.408;2022-08-03T04:30:56;100947.81;;;21.03;68.89
64066;BME280;50318;54.760;9.408;2022-08-03T04:33:23;100946.53;;;21.04;68.68
64066;BME280;50318;54.760;9.408;2022-08-03T04:35:50;100942.97;;;21.03;68.72
64066;BME280;50318;54.760;9.408;2022-08-03T04:38:19;100947.28;;;21.04;68.77
64066;BME280;50318;54.760;9.408;2022-08-03T04:40:45;100941.16;;;21.11;69.05
64066;BME280;50318;54.760;9.408;2022-08-03T04:43:11;100942.63;;;21.18;68.77
64066;BME280;50318;54.760;9.408;2022-08-03T04:45:38;100947.16;;;21.27;68.80
64066;BME280;50318;54.760;9.408;2022-08-03T04:48:23;100948.13;;;21.35;68.96
64066;BME280;50318;54.760;9.408;2022-08-03T04:50:49;100951.84;;;21.43;68.47
64066;BME280;50318;54.760;9.408;2022-08-03T04:53:15;100959.13;;;21.52;68.87
64066;BME280;50318;54.760;9.408;2022-08-03T04:55:40;100947.66;;;21.61;68.72
64066;BME280;50318;54.760;9.408;2022-08-03T05:00:31;100955.81;;;21.83;68.36
64066;BME280;50318;54.760;9.408;2022-08-03T05:02:57;100947.31;;;21.94;68.26
64066;BME280;50318;54.760;9.408;2022-08-03T05:05:22;100952.09;;;22.05;68.38
64066;BME280;50318;54.760;9.408;2022-08-03T05:07:50;100960.84;;;22.15;68.65
64066;BME280;50318;54.760;9.408;2022-08-03T05:10:16;100962.78;;;22.25;67.79
64066;BME280;50318;54.760;9.408;2022-08-03T05:12:43;100957.59;;;22.35;67.90
64066;BME280;50318;54.760;9.408;2022-08-03T05:15:09;100968.63;;;22.46;67.65
64066;BME280;50318;54.760;9.408;2022-08-03T05:17:34;100966.53;;;22.52;67.88
64066;BME280;50318;54.760;9.408;2022-08-03T05:20:01;100942.66;;;22.51;67.75
64066;BME280;50318;54.760;9.408;2022-08-03T05:22:28;100954.22;;;22.61;67.81
64066;BME280;50318;54.760;9.408;2022-08-03T05:24:54;100949.59;;;22.63;67.45
64066;BME280;50318;54.760;9.408;2022-08-03T05:27:19;100947.03;;;22.65;67.69
64066;BME280;50318;54.760;9.408;2022-08-03T05:29:45;100959.72;;;22.66;67.86
64066;BME280;50318;54.760;9.408;2022-08-03T05:32:11;100965.25;;;22.72;67.34
64066;BME280;50318;54.760;9.408;2022-08-03T05:34:37;100963.66;;;22.77;67.17
64066;BME280;50318;54.760;9.408;2022-08-03T05:37:03;100969.72;;;22.81;67.40
64066;BME280;50318;54.760;9.408;2022-08-03T05:39:28;100965.34;;;22.85;66.83
64066;BME280;50318;54.760;9.408;2022-08-03T05:41:54;100961.50;;;22.88;67.15
64066;BME280;50318;54.760;9.408;2022-08-03T05:44:19;100965.50;;;22.93;66.74
64066;BME280;50318;54.760;9.408;2022-08-03T05:46:45;100960.38;;;22.97;67.54
64066;BME280;50318;54.760;9.408;2022-08-03T05:49:11;100957.78;;;22.99;67.54
64066;BME280;50318;54.760;9.408;2022-08-03T05:51:36;100963.84;;;23.03;66.80
64066;BME280;50318;54.760;9.408;2022-08-03T05:54:02;100971.91;;;23.07;67.49
64066;BME280;50318;54.760;9.408;2022-08-03T05:56:27;100971.84;;;23.12;67.00
64066;BME280;50318;54.760;9.408;2022-08-03T05:58:53;100963.88;;;23.16;67.38
64066;BME280;50318;54.760;9.408;2022-08-03T06:01:21;100954.88;;;23.23;67.19
64066;BME280;50318;54.760;9.408;2022-08-03T06:03:47;100963.19;;;23.29;67.16
64066;BME280;50318;54.760;9.408;2022-08-03T06:06:40;100960.28;;;23.35;67.22
64066;BME280;50318;54.760;9.408;2022-08-03T06:09:06;100970.88;;;23.42;67.06
64066;BME280;50318;54.760;9.408;2022-08-03T06:11:31;100972.09;;;23.46;67.04
64066;BME280;50318;54.760;9.408;2022-08-03T06:13:57;100971.44;;;23.53;66.96
64066;BME280;50318;54.760;9.408;2022-08-03T06:16:22;100962.88;;;23.65;67.43
64066;BME280;50318;54.760;9.408;2022-08-03T06:18:53;100954.28;;;23.76;66.75
64066;BME280;50318;54.760;9.408;2022-08-03T06:21:19;100958.94;;;23.86;66.64
64066;BME280;50318;54.760;9.408;2022-08-03T06:23:44;100962.84;;;23.97;66.55
64066;BME280;50318;54.760;9.408;2022-08-03T06:26:23;100959.06;;;24.07;66.32
64066;BME280;50318;54.760;9.408;2022-08-03T06:28:49;100957.03;;;24.21;65.81
64066;BME280;50318;54.760;9.408;2022-08-03T06:31:14;100954.75;;;24.33;65.70
64066;BME280;50318;54.760;9.408;2022-08-03T06:33:40;100964.69;;;24.47;65.40
64066;BME280;50318;54.760;9.408;2022-08-03T06:36:05;100953.44;;;24.60;65.32
64066;BME280;50318;54.760;9.408;2022-08-03T06:38:31;100963.13;;;24.72;65.06
64066;BME280;50318;54.760;9.408;2022-08-03T06:40:56;100956.28;;;24.81;64.80
64066;BME280;50318;54.760;9.408;2022-08-03T06:43:22;100949.50;;;24.90;64.49
64066;BME280;50318;54.760;9.408;2022-08-03T06:45:47;100961.22;;;25.01;64.44
64066;BME280;50318;54.760;9.408;2022-08-03T06:48:13;100963.59;;;25.11;63.77
64066;BME280;50318;54.760;9.408;2022-08-03T06:50:39;100963.09;;;25.20;63.86
64066;BME280;50318;54.760;9.408;2022-08-03T06:53:05;100960.25;;;25.33;63.99
64066;BME280;50318;54.760;9.408;2022-08-03T06:55:31;100960.50;;;25.43;63.56
64066;BME280;50318;54.760;9.408;2022-08-03T06:57:57;100951.59;;;25.52;63.08
64066;BME280;50318;54.760;9.408;2022-08-03T07:00:22;100957.28;;;25.59;62.85
64066;BME280;50318;54.760;9.408;2022-08-03T07:02:48;100963.53;;;25.65;62.78
64066;BME280;50318;54.760;9.408;2022-08-03T07:05:14;100965.44;;;25.70;62.65
64066;BME280;50318;54.760;9.408;2022-08-03T07:07:39;100978.41;;;25.74;62.29
64066;BME280;50318;54.760;9.408;2022-08-03T07:10:05;100970.38;;;25.78;62.11
64066;BME280;50318;54.760;9.408;2022-08-03T07:12:32;100977.28;;;25.77;61.99
64066;BME280;50318;54.760;9.408;2022-08-03T07:14:58;100972.78;;;25.74;61.72
64066;BME280;50318;54.760;9.408;2022-08-03T07:17:24;100964.56;;;25.76;61.78
64066;BME280;50318;54.760;9.408;2022-08-03T07:19:50;100963.78;;;25.75;61.67
64066;BME280;50318;54.760;9.408;2022-08-03T07:22:15;100964.56;;;25.76;61.30
64066;BME280;50318;54.760;9.408;2022-08-03T07:24:52;100966.97;;;25.72;60.97
64066;BME280;50318;54.760;9.408;2022-08-03T07:27:18;100973.34;;;25.72;61.43
64066;BME280;50318;54.760;9.408;2022-08-03T07:29:43;100975.78;;;25.76;61.18
64066;BME280;50318;54.760;9.408;2022-08-03T07:32:09;100967.03;;;25.79;61.14
64066;BME280;50318;54.760;9.408;2022-08-03T07:34:34;100974.91;;;25.81;61.31
64066;BME280;50318;54.760;9.408;2022-08-03T07:37:00;100978.47;;;25.81;61.25
64066;BME280;50318;54.760;9.408;2022-08-03T07:39:25;100970.81;;;25.82;61.25
64066;BME280;50318;54.760;9.408;2022-08-03T07:41:51;100968.00;;;25.82;61.23
64066;BME280;50318;54.760;9.408;2022-08-03T07:44:19;100973.59;;;25.82;61.18
64066;BME280;50318;54.760;9.408;2022-08-03T07:46:45;100974.69;;;25.79;60.94
64066;BME280;50318;54.760;9.408;2022-08-03T07:49:11;100977.28;;;25.77;61.11
64066;BME280;50318;54.760;9.408;2022-08-03T07:51:37;100976.00;;;25.78;61.27
64066;BME280;50318;54.760;9.408;2022-08-03T07:54:03;100980.38;;;25.86;61.62
64066;BME280;50318;54.760;9.408;2022-08-03T07:56:28;100972.47;;;26.06;61.21
64066;BME280;50318;54.760;9.408;2022-08-03T07:58:54;100971.50;;;26.31;61.19
64066;BME280;50318;54.760;9.408;2022-08-03T08:01:20;100971.78;;;26.49;61.12
64066;BME280;50318;54.760;9.408;2022-08-03T08:03:46;100970.31;;;26.55;60.59
64066;BME280;50318;54.760;9.408;2022-08-03T08:06:11;100965.84;;;26.60;60.22
64066;BME280;50318;54.760;9.408;2022-08-03T08:08:39;100977.47;;;26.64;59.63
64066;BME280;50318;54.760;9.408;2022-08-03T08:11:05;100968.50;;;26.73;59.25
64066;BME280;50318;54.760;9.408;2022-08-03T08:13:31;100981.28;;;26.82;58.93
64066;BME280;50318;54.760;9.408;2022-08-03T08:15:56;100960.34;;;26.98;59.24
64066;BME280;50318;54.760;9.408;2022-08-03T08:18:22;100962.44;;;27.13;59.12
64066;BME280;50318;54.760;9.408;2022-08-03T08:20:48;100969.03;;;27.31;59.05
64066;BME280;50318;54.760;9.408;2022-08-03T08:23:14;100966.03;;;27.44;58.47
64066;BME280;50318;54.760;9.408;2022-08-03T08:25:39;100968.13;;;27.59;57.60
64066;BME280;50318;54.760;9.408;2022-08-03T08:28:05;100964.56;;;27.66;57.20
64066;BME280;50318;54.760;9.408;2022-08-03T08:30:31;100971.16;;;27.76;57.03
64066;BME280;50318;54.760;9.408;2022-08-03T08:32:57;100962.13;;;27.85;56.66
64066;BME280;50318;54.760;9.408;2022-08-03T08:35:23;100969.84;;;27.92;56.41
64066;BME280;50318;54.760;9.408;2022-08-03T08:37:48;100961.34;;;28.00;56.36
64066;BME280;50318;54.760;9.408;2022-08-03T08:40:14;100970.56;;;28.00;55.68
64066;BME280;50318;54.760;9.408;2022-08-03T08:42:40;100968.66;;;28.03;55.22
64066;BME280;50318;54.760;9.408;2022-08-03T08:45:06;100971.69;;;28.05;55.35
64066;BME280;50318;54.760;9.408;2022-08-03T08:48:05;100969.97;;;28.09;55.83
64066;BME280;50318;54.760;9.408;2022-08-03T08:50:31;100971.66;;;28.20;55.81
64066;BME280;50318;54.760;9.408;2022-08-03T08:52:59;100978.44;;;28.25;55.40
64066;BME280;50318;54.760;9.408;2022-08-03T08:55:26;100978.97;;;28.31;55.77
64066;BME280;50318;54.760;9.408;2022-08-03T08:57:54;100980.25;;;28.45;55.47
64066;BME280;50318;54.760;9.408;2022-08-03T09:00:21;100972.84;;;28.57;54.99
64066;BME280;50318;54.760;9.408;2022-08-03T09:02:47;100985.25;;;28.62;54.75
64066;BME280;50318;54.760;9.408;2022-08-03T09:05:16;100977.50;;;28.70;54.99
64066;BME280;50318;54.760;9.408;2022-08-03T09:07:43;100975.00;;;28.82;54.67
64066;BME280;50318;54.760;9.408;2022-08-03T09:10:09;100978.19;;;28.86;54.42
64066;BME280;50318;54.760;9.408;2022-08-03T09:12:40;100968.44;;;28.87;54.13
64066;BME280;50318;54.760;9.408;2022-08-03T09:15:16;100970.09;;;28.82;54.10
64066;BME280;50318;54.760;9.408;2022-08-03T09:17:42;100970.56;;;28.71;54.26
64066;BME280;50318;54.760;9.408;2022-08-03T09:20:07;100978.31;;;28.63;53.61
64066;BME280;50318;54.760;9.408;2022-08-03T09:22:50;100982.09;;;28.50;54.27
64066;BME280;50318;54.760;9.408;2022-08-03T09:25:15;100975.31;;;28.53;54.77
64066;BME280;50318;54.760;9.408;2022-08-03T09:27:41;100980.91;;;28.68;55.27
64066;BME280;50318;54.760;9.408;2022-08-03T09:30:17;100988.75;;;28.85;54.92
64066;BME280;50318;54.760;9.408;2022-08-03T09:32:43;100981.75;;;28.94;54.41
64066;BME280;50318;54.760;9.408;2022-08-03T09:35:11;100986.03;;;29.02;54.27
64066;BME280;50318;54.760;9.408;2022-08-03T09:37:39;100988.78;;;29.10;54.22
64066;BME280;50318;54.760;9.408;2022-08-03T09:40:34;100995.75;;;29.17;53.93
64066;BME280;50318;54.760;9.408;2022-08-03T09:43:03;100986.34;;;29.14;53.96
64066;BME280;50318;54.760;9.408;2022-08-03T09:45:28;100991.25;;;29.14;53.98
64066;BME280;50318;54.760;9.408;2022-08-03T09:47:54;100994.44;;;29.10;53.53
64066;BME280;50318;54.760;9.408;2022-08-03T09:50:21;101001.13;;;28.97;53.51
64066;BME280;50318;54.760;9.408;2022-08-03T09:52:46;100987.78;;;28.83;53.35
64066;BME280;50318;54.760;9.408;2022-08-03T09:55:15;100990.34;;;28.63;53.73
64066;BME280;50318;54.760;9.408;2022-08-03T09:57:41;100989.59;;;28.55;54.73
64066;BME280;50318;54.760;9.408;2022-08-03T10:00:13;101002.41;;;28.56;54.89
64066;BME280;50318;54.760;9.408;2022-08-03T10:02:40;100985.25;;;28.62;54.99
64066;BME280;50318;54.760;9.408;2022-08-03T10:05:07;100983.59;;;28.51;54.53
64066;BME280;50318;54.760;9.408;2022-08-03T10:07:48;100992.09;;;28.43;54.84
64066;BME280;50318;54.760;9.408;2022-08-03T10:10:15;100991.94;;;28.41;55.30
64066;BME280;50318;54.760;9.408;2022-08-03T10:12:41;100993.25;;;28.33;55.21
64066;BME280;50318;54.760;9.408;2022-08-03T10:15:08;100994.56;;;28.32;55.39
64066;BME280;50318;54.760;9.408;2022-08-03T10:17:34;100996.09;;;28.25;55.55
64066;BME280;50318;54.760;9.408;2022-08-03T10:20:00;100998.34;;;28.19;55.58
64066;BME280;50318;54.760;9.408;2022-08-03T10:22:31;100998.16;;;28.09;55.69
64066;BME280;50318;54.760;9.408;2022-08-03T10:24:59;100990.84;;;28.06;56.22
64066;BME280;50318;54.760;9.408;2022-08-03T10:27:26;100991.56;;;28.14;56.46
64066;BME280;50318;54.760;9.408;2022-08-03T10:29:52;100988.56;;;28.28;57.11
64066;BME280;50318;54.760;9.408;2022-08-03T10:32:39;100987.03;;;28.42;57.20
64066;BME280;50318;54.760;9.408;2022-08-03T10:37:36;100983.13;;;28.78;57.13
64066;BME280;50318;54.760;9.408;2022-08-03T10:40:14;100989.06;;;28.97;56.48
64066;BME280;50318;54.760;9.408;2022-08-03T10:42:45;100990.94;;;29.02;55.15
64066;BME280;50318;54.760;9.408;2022-08-03T10:45:18;100987.13;;;29.07;54.95
64066;BME280;50318;54.760;9.408;2022-08-03T10:47:45;100985.44;;;29.04;54.80
64066;BME280;50318;54.760;9.408;2022-08-03T10:50:34;100987.94;;;29.00;55.24
64066;BME280;50318;54.760;9.408;2022-08-03T10:53:01;100989.44;;;29.01;54.89
64066;BME280;50318;54.760;9.408;2022-08-03T10:55:58;100994.66;;;29.12;55.14
64066;BME280;50318;54.760;9.408;2022-08-03T10:58:46;100997.19;;;29.25;55.11
64066;BME280;50318;54.760;9.408;2022-08-03T11:01:12;100996.03;;;29.28;54.41
64066;BME280;50318;54.760;9.408;2022-08-03T11:06:24;100997.94;;;29.26;54.20
64066;BME280;50318;54.760;9.408;2022-08-03T11:11:34;101000.09;;;29.43;54.97
64066;BME280;50318;54.760;9.408;2022-08-03T11:14:01;101006.09;;;29.47;54.36
64066;BME280;50318;54.760;9.408;2022-08-03T11:16:33;101002.69;;;29.48;54.05
64066;BME280;50318;54.760;9.408;2022-08-03T11:19:03;101004.41;;;29.44;53.92
64066;BME280;50318;54.760;9.408;2022-08-03T11:40:39;101013.97;;;29.23;54.31
64066;BME280;50318;54.760;9.408;2022-08-03T11:43:06;101005.47;;;29.23;54.16
64066;BME280;50318;54.760;9.408;2022-08-03T11:45:32;101004.72;;;29.23;53.87
64066;BME280;50318;54.760;9.408;2022-08-03T11:47:58;101004.50;;;29.28;53.98
64066;BME280;50318;54.760;9.408;2022-08-03T11:50:26;101007.31;;;29.28;54.15
64066;BME280;50318;54.760;9.408;2022-08-03T11:52:59;101005.06;;;29.27;54.14
64066;BME280;50318;54.760;9.408;2022-08-03T11:55:25;101008.41;;;29.33;54.52
64066;BME280;50318;54.760;9.408;2022-08-03T11:57:50;101003.31;;;29.39;53.64
64066;BME280;50318;54.760;9.408;2022-08-03T12:03:21;101008.47;;;29.25;53.68
64066;BME280;50318;54.760;9.408;2022-08-03T12:05:41;101006.53;;;29.11;53.51
64066;BME280;50318;54.760;9.408;2022-08-03T12:08:08;101006.72;;;29.05;54.08
64066;BME280;50318;54.760;9.408;2022-08-03T12:10:34;101005.41;;;29.06;53.63
64066;BME280;50318;54.760;9.408;2022-08-03T12:13:00;101006.16;;;29.07;53.88
64066;BME280;50318;54.760;9.408;2022-08-03T12:15:29;100999.22;;;29.00;53.57
64066;BME280;50318;54.760;9.408;2022-08-03T12:17:55;101011.84;;;28.99;54.27
64066;BME280;50318;54.760;9.408;2022-08-03T12:20:22;101007.88;;;29.02;54.47
64066;BME280;50318;54.760;9.408;2022-08-03T12:22:49;101004.44;;;29.11;54.31
64066;BME280;50318;54.760;9.408;2022-08-03T12:25:24;101009.13;;;29.16;53.77
64066;BME280;50318;54.760;9.408;2022-08-03T12:27:51;100999.88;;;29.16;53.97
64066;BME280;50318;54.760;9.408;2022-08-03T12:30:17;101000.81;;;29.18;53.87
64066;BME280;50318;54.760;9.408;2022-08-03T12:32:43;101004.38;;;29.19;53.91
64066;BME280;50318;54.760;9.408;2022-08-03T12:35:09;101016.25;;;29.17;53.90
64066;BME280;50318;54.760;9.408;2022-08-03T12:37:34;101014.00;;;29.16;54.20
64066;BME280;50318;54.760;9.408;2022-08-03T12:40:01;101014.59;;;29.14;53.82
64066;BME280;50318;54.760;9.408;2022-08-03T12:44:56;101009.34;;;29.11;54.38
64066;BME280;50318;54.760;9.408;2022-08-03T12:47:21;101007.06;;;29.09;54.71
64066;BME280;50318;54.760;9.408;2022-08-03T12:49:48;101006.88;;;29.07;54.56
64066;BME280;50318;54.760;9.408;2022-08-03T12:52:14;101013.88;;;29.06;54.58
64066;BME280;50318;54.760;9.408;2022-08-03T12:54:39;101011.63;;;29.04;54.44
64066;BME280;50318;54.760;9.408;2022-08-03T12:59:34;101009.72;;;29.07;54.17
64066;BME280;50318;54.760;9.408;2022-08-03T13:02:00;101019.13;;;29.10;54.18
64066;BME280;50318;54.760;9.408;2022-08-03T13:04:27;101011.38;;;29.10;53.48
64066;BME280;50318;54.760;9.408;2022-08-03T13:06:57;101013.44;;;29.17;53.59
64066;BME280;50318;54.760;9.408;2022-08-03T13:09:22;101022.84;;;29.20;53.19
64066;BME280;50318;54.760;9.408;2022-08-03T13:12:09;101014.72;;;29.24;53.59
64066;BME280;50318;54.760;9.408;2022-08-03T13:14:35;101012.41;;;29.30;53.61
64066;BME280;50318;54.760;9.408;2022-08-03T13:17:01;101020.47;;;29.33;53.89
64066;BME280;50318;54.760;9.408;2022-08-03T13:19:27;101016.38;;;29.27;53.37
64066;BME280;50318;54.760;9.408;2022-08-03T13:22:16;101015.13;;;29.20;53.28
64066;BME280;50318;54.760;9.408;2022-08-03T13:24:43;101008.94;;;29.14;53.35
64066;BME280;50318;54.760;9.408;2022-08-03T13:27:09;101008.94;;;29.14;53.79
64066;BME280;50318;54.760;9.408;2022-08-03T13:29:34;101023.97;;;29.17;53.37
64066;BME280;50318;54.760;9.408;2022-08-03T13:32:01;101023.81;;;29.15;53.59
64066;BME280;50318;54.760;9.408;2022-08-03T13:34:26;101018.56;;;29.11;53.40
64066;BME280;50318;54.760;9.408;2022-08-03T13:36:52;101018.00;;;29.05;53.10
64066;BME280;50318;54.760;9.408;2022-08-03T13:39:17;101023.31;;;29.01;53.47
64066;BME280;50318;54.760;9.408;2022-08-03T13:41:44;101023.66;;;29.05;53.51
64066;BME280;50318;54.760;9.408;2022-08-03T13:44:10;101022.16;;;29.04;53.84
64066;BME280;50318;54.760;9.408;2022-08-03T13:46:58;101028.56;;;29.04;53.62